San Jose Del Cabo, BCS, Mexico
Current Conditions -  °F | °C
As of 3:46 PM on Friday 19 Dec 2014 (Local Time) from MMSD Reporting Station
Scattered Clouds Scattered Clouds  
Wind Chill: 75°   Ceiling: Unl
Heat Index: 75°   Visibility: 15mi
Dew Point: 57°   Wind: 10mph
Humidity: 53%   Direction: 360°N
Pressure: 29.96"   Gusts: NA
Location:  23.07°N, 109.68°W
Report Text: MMSD 192246Z 36009KT 15SM SCT040 24/14 A2996 RMK 8/500 CI
Loading
Personal Weather Stations






























Interactive Weather Map New forecast layout! Learn more

10-Day Weather Forecast

Advertisements
Track Severe Weather on mobile